createdAt,value
2022-09-02T00:03:35.353Z,101503.06
2022-09-02T00:08:37.211Z,101503.94
2022-09-02T00:13:38.917Z,101496.06
2022-09-02T00:18:45.943Z,101485.53
2022-09-02T00:23:47.967Z,101486.41
2022-09-02T00:28:55.881Z,101482.91
2022-09-02T00:33:58.138Z,101483.75
2022-09-02T00:38:59.788Z,101481.09
2022-09-02T00:44:03.809Z,101483.75
2022-09-02T00:49:16.777Z,101478.47
2022-09-02T00:54:21.097Z,101481.06
2022-09-02T00:59:46.508Z,101474.06
2022-09-02T01:04:48.213Z,101482.81
2022-09-02T01:09:50.549Z,101474.00
2022-09-02T01:14:52.257Z,101480.09
2022-09-02T01:19:57.506Z,101466.94
2022-09-02T01:25:02.952Z,101458.97
2022-09-02T01:30:09.935Z,101458.97
2022-09-02T01:35:12.499Z,101458.09
2022-09-02T01:40:15.818Z,101467.69
2022-09-02T01:45:18.555Z,101462.44
2022-09-02T01:50:20.297Z,101455.41
2022-09-02T01:55:22.790Z,101458.00
2022-09-02T02:00:25.711Z,101451.00
2022-09-02T02:05:27.520Z,101454.44
2022-09-02T02:10:29.409Z,101446.50
2022-09-02T02:20:32.050Z,101445.63
2022-09-02T02:25:33.824Z,101439.47
2022-09-02T02:30:35.625Z,101435.03
2022-09-02T02:35:38.260Z,101441.16
2022-09-02T02:40:40.052Z,101437.66
2022-09-02T02:45:41.826Z,101438.44
2022-09-02T02:50:43.743Z,101428.84
2022-09-02T02:55:45.501Z,101419.22
2022-09-02T03:00:52.097Z,101416.59
2022-09-02T03:05:55.553Z,101413.09
2022-09-02T03:10:58.033Z,101413.06
2022-09-02T03:16:05.164Z,101410.44
2022-09-02T03:21:08.619Z,101411.25
2022-09-02T03:26:11.900Z,101413.84
2022-09-02T03:31:19.231Z,101410.31
2022-09-02T03:36:25.271Z,101399.81
2022-09-02T03:41:27.251Z,101396.34
2022-09-02T03:46:30.232Z,101402.50
2022-09-02T03:51:32.656Z,101404.25
2022-09-02T03:56:34.716Z,101396.34
2022-09-02T04:01:37.500Z,101401.59
2022-09-02T04:06:39.677Z,101398.03
2022-09-02T04:11:42.801Z,101397.13
2022-09-02T04:16:45.491Z,101402.31
2022-09-02T04:21:48.562Z,101405.75
2022-09-02T04:26:51.281Z,101405.66
2022-09-02T04:31:53.312Z,101403.91
2022-09-02T04:36:56.575Z,101401.31
2022-09-02T04:41:58.811Z,101403.06
2022-09-02T04:47:02.250Z,101405.66
2022-09-02T04:52:04.387Z,101407.34
2022-09-02T04:57:07.492Z,101404.72
2022-09-02T05:02:11.003Z,101410.84
2022-09-02T05:07:13.313Z,101412.66
2022-09-02T05:12:19.481Z,101410.09
2022-09-02T05:17:26.932Z,101402.22
2022-09-02T05:22:29.530Z,101409.28
2022-09-02T05:27:33.548Z,101404.91
2022-09-02T05:32:37.930Z,101409.38
2022-09-02T05:37:40.442Z,101406.81
2022-09-02T05:42:43.593Z,101412.06
2022-09-02T05:47:47.104Z,101404.41
2022-09-02T05:52:51.802Z,101398.44
2022-09-02T05:57:54.871Z,101401.16
2022-09-02T06:02:58.769Z,101392.47
2022-09-02T06:08:10.800Z,101392.50
2022-09-02T06:13:13.326Z,101394.31
2022-09-02T06:18:15.482Z,101395.22
2022-09-02T06:23:19.049Z,101404.84
2022-09-02T06:28:21.852Z,101396.16
2022-09-02T06:33:24.448Z,101397.91
2022-09-02T06:38:27.031Z,101396.16
2022-09-02T06:43:28.995Z,101397.00
2022-09-02T06:48:53.231Z,101409.28
2022-09-02T06:53:57.402Z,101402.31
2022-09-02T06:59:01.978Z,101398.84
2022-09-02T07:04:52.112Z,101395.38
2022-09-02T07:09:57.291Z,101402.41
2022-09-02T07:14:59.129Z,101397.19
2022-09-02T07:20:11.505Z,101403.34
2022-09-02T07:25:18.505Z,101405.13
2022-09-02T07:30:21.368Z,101405.13
2022-09-02T07:35:26.834Z,101402.50
2022-09-02T07:40:30.048Z,101404.25
2022-09-02T07:45:32.210Z,101404.25
2022-09-02T07:50:35.983Z,101406.84
2022-09-02T07:55:39.480Z,101402.44
2022-09-02T08:00:41.917Z,101402.41
2022-09-02T08:05:46.994Z,101399.75
2022-09-02T08:10:49.707Z,101397.09
2022-09-02T08:15:51.437Z,101398.84
2022-09-02T08:20:53.141Z,101396.16
2022-09-02T08:25:54.815Z,101400.47
2022-09-02T08:30:57.794Z,101401.28
2022-09-02T08:36:04.928Z,101385.38
2022-09-02T08:41:17.344Z,101389.66
2022-09-02T08:46:19.118Z,101386.94
2022-09-02T08:51:33.850Z,101382.41
2022-09-02T08:56:39.180Z,101384.91
2022-09-02T09:01:48.785Z,101374.25
2022-09-02T09:06:59.585Z,101373.16
2022-09-02T09:12:16.833Z,101366.81
2022-09-02T09:17:39.654Z,101363.16
2022-09-02T09:22:41.306Z,101357.63
2022-09-02T09:27:45.343Z,101352.19
2022-09-02T09:32:49.440Z,101343.22
2022-09-02T09:37:51.979Z,101345.59
2022-09-02T09:43:14.139Z,101337.41
2022-09-02T09:48:16.643Z,101334.50
2022-09-02T09:53:22.914Z,101330.78
2022-09-02T09:58:39.882Z,101319.09
2022-09-02T10:04:20.756Z,101324.09
2022-09-02T10:09:33.927Z,101308.84
2022-09-02T10:14:55.976Z,101305.81
2022-09-02T10:20:07.157Z,101298.47
2022-09-02T10:25:34.700Z,101303.41
2022-09-02T10:30:45.521Z,101287.13
2022-09-02T10:35:49.137Z,101279.63
2022-09-02T10:41:00.815Z,101282.84
2022-09-02T10:46:02.656Z,101286.69
2022-09-02T10:51:27.337Z,101279.19
2022-09-02T10:56:35.016Z,101258.50
2022-09-02T11:01:46.896Z,101267.94
2022-09-02T11:07:02.451Z,101256.13
2022-09-02T11:12:09.158Z,101245.00
2022-09-02T11:17:16.651Z,101243.91
2022-09-02T11:22:43.831Z,101238.06
2022-09-02T11:28:04.980Z,101233.53
2022-09-02T11:33:26.611Z,101227.56
2022-09-02T11:38:37.268Z,101227.00
2022-09-02T11:43:46.241Z,101215.56
2022-09-02T11:49:15.857Z,101209.06
2022-09-02T11:54:18.748Z,101217.13
2022-09-02T11:59:44.296Z,101205.88
2022-09-02T12:05:00.087Z,101201.81
2022-09-02T12:10:03.337Z,101199.75
2022-09-02T12:15:05.483Z,101180.88
2022-09-02T12:20:12.439Z,101196.53
2022-09-02T12:25:26.951Z,101188.19
2022-09-02T12:31:08.992Z,101185.88
2022-09-02T12:36:36.826Z,101174.22
2022-09-02T12:41:39.792Z,101171.94
2022-09-02T12:46:44.641Z,101166.06
2022-09-02T12:51:57.196Z,101154.59
2022-09-02T12:56:58.918Z,101149.53
2022-09-02T13:02:16.930Z,101141.66
2022-09-02T13:07:27.579Z,101149.00
2022-09-02T13:12:49.515Z,101143.84
2022-09-02T13:18:14.989Z,101127.69
2022-09-02T13:23:43.385Z,101125.13
2022-09-02T13:29:23.828Z,101133.34
2022-09-02T13:34:25.494Z,101116.53
2022-09-02T13:39:28.041Z,101109.50
2022-09-02T13:44:29.708Z,101111.97
2022-09-02T13:49:38.135Z,101102.63
2022-09-02T13:54:39.821Z,101112.31
2022-09-02T13:59:48.068Z,101105.19
2022-09-02T14:04:51.532Z,101095.44
2022-09-02T14:09:53.198Z,101078.38
2022-09-02T14:14:54.943Z,101074.22
2022-09-02T14:20:14.952Z,101075.78
2022-09-02T14:25:16.781Z,101071.78
2022-09-02T14:30:37.980Z,101079.44
2022-09-02T14:35:39.663Z,101066.09
2022-09-02T14:40:43.277Z,101063.47
2022-09-02T14:45:47.826Z,101058.25
2022-09-02T14:50:49.811Z,101077.00
2022-09-02T14:55:55.367Z,101060.78
2022-09-02T15:00:59.241Z,101054.94
2022-09-02T15:06:00.957Z,101068.53
2022-09-02T15:11:02.675Z,101054.38
2022-09-02T15:16:04.426Z,101054.03
2022-09-02T15:21:06.263Z,101059.53
2022-09-02T15:26:08.598Z,101059.72
2022-09-02T15:31:10.340Z,101061.50
2022-09-02T15:36:12.933Z,101050.72
2022-09-02T15:41:18.947Z,101035.81
2022-09-02T15:46:28.744Z,101034.56
2022-09-02T15:51:30.611Z,101041.63
2022-09-02T15:56:33.575Z,101045.09
2022-09-02T16:01:35.487Z,101035.19
2022-09-02T16:06:39.435Z,101023.16
2022-09-02T16:11:42.556Z,101036.38
2022-09-02T16:16:45.337Z,101034.44
2022-09-02T16:21:47.742Z,101032.38
2022-09-02T16:26:49.779Z,101031.38
2022-09-02T16:32:13.906Z,101027.81
2022-09-02T16:37:13.897Z,101029.91
2022-09-02T16:42:15.560Z,101015.38
2022-09-02T16:47:17.231Z,101010.03
2022-09-02T16:52:19.725Z,101001.97
2022-09-02T16:57:21.404Z,101012.09
2022-09-02T17:02:23.408Z,101000.28
2022-09-02T17:07:25.229Z,101002.22
2022-09-02T17:12:26.910Z,101003.44
2022-09-02T17:17:29.700Z,101001.34
2022-09-02T17:22:31.356Z,100992.72
2022-09-02T17:27:39.166Z,101007.84
2022-09-02T17:32:41.097Z,100996.13
2022-09-02T17:37:42.753Z,101005.47
2022-09-02T17:42:44.647Z,101007.59
2022-09-02T17:47:46.291Z,101008.22
2022-09-02T17:52:47.992Z,101014.53
2022-09-02T17:58:05.810Z,101016.34
2022-09-02T18:03:26.299Z,101019.88
2022-09-02T18:08:37.946Z,101024.94
2022-09-02T18:13:54.554Z,101028.53
2022-09-02T18:19:19.767Z,101038.19
2022-09-02T18:24:50.362Z,101036.25
2022-09-02T18:30:02.675Z,101049.50
2022-09-02T18:35:25.701Z,101055.47
2022-09-02T18:40:29.185Z,101056.19
2022-09-02T18:45:39.206Z,101049.66
2022-09-02T18:50:50.813Z,101054.56
2022-09-02T18:55:52.960Z,101064.75
2022-09-02T19:00:55.505Z,101076.56
2022-09-02T19:05:57.438Z,101076.03
2022-09-02T19:11:05.175Z,101077.22
2022-09-02T19:16:06.999Z,101070.28
2022-09-02T19:21:08.761Z,101073.09
2022-09-02T19:26:10.431Z,101067.13
2022-09-02T19:31:18.374Z,101083.31
2022-09-02T19:36:20.990Z,101090.63
2022-09-02T19:41:25.675Z,101090.84
2022-09-02T19:47:07.000Z,101089.41
2022-09-02T19:51:49.045Z,101097.59
2022-09-02T19:56:51.432Z,101100.38
2022-09-02T20:01:53.145Z,101097.84
2022-09-02T20:06:55.528Z,101102.34
2022-09-02T20:11:57.236Z,101104.09
2022-09-02T20:16:59.241Z,101104.16
2022-09-02T20:22:00.917Z,101103.28
2022-09-02T20:27:14.721Z,101110.38
2022-09-02T20:32:23.391Z,101105.16
2022-09-02T20:37:32.177Z,101111.38
2022-09-02T20:42:37.140Z,101114.06
2022-09-02T20:47:50.914Z,101111.41
2022-09-02T20:53:11.016Z,101111.47
2022-09-02T20:58:17.517Z,101104.47
2022-09-02T21:03:19.186Z,101106.28
2022-09-02T21:08:33.036Z,101106.34
2022-09-02T21:14:05.083Z,101113.44
2022-09-02T21:19:22.788Z,101110.84
2022-09-02T21:24:36.246Z,101105.66
2022-09-02T21:29:42.308Z,101111.84
2022-09-02T21:34:56.427Z,101108.44
2022-09-02T21:40:02.186Z,101114.66
2022-09-02T21:45:23.523Z,101110.31
2022-09-02T21:50:59.104Z,101106.00
2022-09-02T21:56:25.706Z,101109.59
2022-09-02T22:01:55.683Z,101100.00
2022-09-02T22:07:28.387Z,101093.06
2022-09-02T22:12:30.068Z,101088.78
2022-09-02T22:17:45.707Z,101092.41
2022-09-02T22:22:53.188Z,101087.19
2022-09-02T22:28:12.321Z,101081.13
2022-09-02T22:33:14.944Z,101083.78
2022-09-02T22:38:27.772Z,101076.88
2022-09-02T22:43:34.393Z,101076.97
2022-09-02T22:49:16.833Z,101078.84
2022-09-02T22:54:18.647Z,101079.91
2022-09-02T22:59:30.383Z,101081.00
2022-09-02T23:04:46.330Z,101073.25
2022-09-02T23:09:48.128Z,101076.06
2022-09-02T23:15:10.898Z,101071.81
2022-09-02T23:20:21.686Z,101065.88
2022-09-02T23:25:50.125Z,101077.44
2022-09-02T23:31:10.635Z,101056.53
2022-09-02T23:36:20.011Z,101068.06
2022-09-02T23:41:21.685Z,101066.41
2022-09-02T23:47:01.235Z,101060.38
2022-09-02T23:52:26.339Z,101056.16
2022-09-02T23:58:05.769Z,101056.28
